createdAt,value
2023-04-25T15:35:03.121Z,101710
2023-04-25T15:40:03.340Z,101710
2023-04-25T15:45:00.498Z,101710
2023-04-25T15:50:01.815Z,101710
2023-04-25T15:55:00.466Z,101710
2023-04-25T16:00:02.799Z,101720
2023-04-25T16:05:00.815Z,101730
2023-04-25T16:10:00.557Z,101740
2023-04-25T16:15:00.710Z,101720
2023-04-25T16:20:00.494Z,101720
2023-04-25T16:25:00.580Z,101730
2023-04-25T16:30:02.015Z,101740
2023-04-25T16:35:00.743Z,101740
2023-04-25T16:40:00.536Z,101740
2023-04-25T16:45:01.138Z,101750
2023-04-25T16:50:00.576Z,101750
2023-04-25T16:55:00.502Z,101750
2023-04-25T17:00:01.079Z,101760
2023-04-25T17:05:00.541Z,101750
2023-04-25T17:10:00.503Z,101740
2023-04-25T17:15:00.634Z,101760
2023-04-25T17:20:00.623Z,101760
2023-04-25T17:25:00.527Z,101780
2023-04-25T17:30:00.506Z,101780
2023-04-25T17:35:00.494Z,101780
2023-04-25T17:40:00.579Z,101780
2023-04-25T17:45:00.530Z,101780
2023-04-25T17:50:00.549Z,101780
2023-04-25T17:55:00.517Z,101780
2023-04-25T18:00:01.163Z,101790
2023-04-25T18:05:00.762Z,101790
2023-04-25T18:10:00.686Z,101790
2023-04-25T18:15:00.517Z,101800
2023-04-25T18:20:00.478Z,101810
2023-04-25T18:25:00.488Z,101810
2023-04-25T18:30:00.457Z,101810
2023-04-25T18:35:00.509Z,101810
2023-04-25T18:40:00.549Z,101820
2023-04-25T18:45:00.511Z,101830
2023-04-25T18:50:00.472Z,101830
2023-04-25T18:55:00.577Z,101830
2023-04-25T19:00:01.997Z,101840
2023-04-25T19:05:00.506Z,101850
2023-04-25T19:10:02.812Z,101850
2023-04-25T19:15:00.552Z,101860
2023-04-25T19:20:00.508Z,101860
2023-04-25T19:25:09.963Z,101860
2023-04-25T19:30:00.465Z,101870
2023-04-25T19:35:01.230Z,101870
2023-04-25T19:40:00.508Z,101870
2023-04-25T19:45:00.568Z,101880
2023-04-25T19:50:00.478Z,101870
2023-04-25T19:55:00.884Z,101880
2023-04-25T20:00:04.639Z,101880
2023-04-25T20:05:00.517Z,101890
2023-04-25T20:10:00.929Z,101890
2023-04-25T20:15:00.496Z,101890
2023-04-25T20:20:00.548Z,101890
2023-04-25T20:25:01.483Z,101890
2023-04-25T20:30:00.512Z,101900
2023-04-25T20:35:01.943Z,101890
2023-04-25T20:40:03.012Z,101900
2023-04-25T20:45:00.793Z,101900
2023-04-25T20:50:00.625Z,101900
2023-04-25T20:55:00.535Z,101910
2023-04-25T21:00:01.018Z,101900
2023-04-25T21:05:00.490Z,101900
2023-04-25T21:10:00.520Z,101890
2023-04-25T21:15:00.909Z,101900
2023-04-25T21:20:00.491Z,101890
2023-04-25T21:25:00.669Z,101890
2023-04-25T21:30:00.522Z,101900
2023-04-25T21:35:00.671Z,101900
2023-04-25T21:40:00.572Z,101900
2023-04-25T21:45:02.026Z,101900
2023-04-25T21:50:00.865Z,101910
2023-04-25T21:55:00.595Z,101910
2023-04-25T22:00:01.107Z,101910
2023-04-25T22:05:00.464Z,101910
2023-04-25T22:10:00.528Z,101910
2023-04-25T22:15:00.536Z,101910
2023-04-25T22:20:00.774Z,101920
2023-04-25T22:25:00.513Z,101920
2023-04-25T22:30:00.597Z,101930
2023-04-25T22:35:00.515Z,101920
2023-04-25T22:40:01.143Z,101920
2023-04-25T22:45:00.452Z,101930
2023-04-25T22:50:00.553Z,101930
2023-04-25T22:55:00.598Z,101940
2023-04-25T23:00:00.855Z,101940
2023-04-25T23:05:00.452Z,101950
2023-04-25T23:10:00.645Z,101950
2023-04-25T23:15:00.870Z,101950
2023-04-25T23:20:00.473Z,101950
2023-04-25T23:25:00.984Z,101950
2023-04-25T23:30:00.500Z,101950
2023-04-25T23:35:00.494Z,101940
2023-04-25T23:40:00.541Z,101930
2023-04-25T23:45:00.469Z,101940
2023-04-25T23:50:01.114Z,101930
2023-04-25T23:55:00.600Z,101940
